createdAt,value
2018-03-30T18:42:34.627Z,16.80
2018-03-30T18:43:07.207Z,8.60
2018-03-30T18:44:39.027Z,8.50
2018-03-30T18:47:09.411Z,10.20
2018-03-30T18:48:40.416Z,9.80
2018-03-30T18:50:12.132Z,8.30
2018-03-30T18:51:43.950Z,11.50
2018-03-30T18:53:15.786Z,15.70
2018-03-30T18:54:47.582Z,12.80
2018-03-30T18:56:19.398Z,6.30
2018-03-30T18:57:51.214Z,6.20
2018-03-30T18:59:23.029Z,10.60
2018-03-30T19:00:54.945Z,8.10
2018-03-30T19:02:26.664Z,7.00
2018-03-30T19:03:58.475Z,6.90
2018-03-30T19:05:30.289Z,8.20
2018-03-30T19:07:02.307Z,8.00
2018-03-30T19:08:33.918Z,8.80
2018-03-30T19:10:05.733Z,8.60
2018-03-30T19:11:37.546Z,6.60
2018-03-30T19:14:41.175Z,7.70
2018-03-30T19:16:12.990Z,10.40
2018-03-30T19:17:45.006Z,9.60
2018-03-30T19:19:16.618Z,10.90
2018-03-30T19:20:48.533Z,11.60
2018-03-30T19:22:20.249Z,13.90
2018-03-30T19:23:52.062Z,15.30
2018-03-30T19:25:23.878Z,15.80
2018-03-30T19:26:55.840Z,13.50
2018-03-30T19:28:27.504Z,13.80
2018-03-30T19:31:31.133Z,9.30
2018-03-30T19:33:02.947Z,9.80
2018-03-30T19:34:34.770Z,12.80
2018-03-30T19:36:06.577Z,12.90
2018-03-30T19:37:38.392Z,15.90
2018-03-30T19:39:10.307Z,13.30
2018-03-30T19:40:42.030Z,11.40
2018-03-30T19:42:13.837Z,14.80
2018-03-30T19:43:45.653Z,9.90
2018-03-30T19:45:17.468Z,13.50
2018-03-30T19:46:49.282Z,12.70
2018-03-30T19:48:21.098Z,9.60
2018-03-30T19:49:52.913Z,6.40
2018-03-30T19:51:24.829Z,8.00
2018-03-30T19:52:56.543Z,10.00
2018-03-30T19:54:28.359Z,12.70
2018-03-30T19:56:00.174Z,15.60
2018-03-30T19:57:32.089Z,16.30
2018-03-30T19:59:03.804Z,19.30
2018-03-30T20:00:35.619Z,25.30
2018-03-30T20:02:07.435Z,23.80
2018-03-30T20:03:39.249Z,25.70
2018-03-30T20:05:11.067Z,26.70
2018-03-30T20:06:42.881Z,26.70
2018-03-30T20:08:14.696Z,27.10
2018-03-30T20:09:46.568Z,28.60
2018-03-30T20:11:18.329Z,27.50
2018-03-30T20:12:50.144Z,27.70
2018-03-30T20:14:21.959Z,30.50
2018-03-30T20:15:54.130Z,29.20
2018-03-30T20:17:25.590Z,32.20
2018-03-30T20:18:57.406Z,35.00
2018-03-30T20:20:29.222Z,33.90
2018-03-30T20:22:01.138Z,42.40
2018-03-30T20:23:32.853Z,37.60
2018-03-30T20:25:04.670Z,41.90
2018-03-30T20:26:36.488Z,38.00
2018-03-30T20:28:08.452Z,37.00
2018-03-30T20:29:40.136Z,40.10
2018-03-30T20:31:11.933Z,38.80
2018-03-30T20:32:43.750Z,41.00
2018-03-30T20:34:15.665Z,39.70
2018-03-30T20:35:47.611Z,42.60
2018-03-30T20:37:19.196Z,43.90
2018-03-30T20:38:51.012Z,46.20
2018-03-30T20:40:22.827Z,42.20
2018-03-30T20:41:54.644Z,47.60
2018-03-30T20:43:26.459Z,47.20
2018-03-30T20:44:58.276Z,45.30
2018-03-30T20:46:30.344Z,47.90
2018-03-30T20:48:01.910Z,50.40
2018-03-30T20:49:33.721Z,51.50
2018-03-30T20:51:05.536Z,49.90
2018-03-30T20:52:37.553Z,53.10
2018-03-30T20:54:09.168Z,56.60
2018-03-30T20:55:40.983Z,55.60
2018-03-30T20:57:12.799Z,58.00
2018-03-30T20:58:44.617Z,54.30
2018-03-30T21:00:16.430Z,57.10
2018-03-30T21:01:48.246Z,52.30
2018-03-30T21:03:20.062Z,62.50
2018-03-30T21:04:51.877Z,58.50
2018-03-30T21:06:23.693Z,66.50
2018-03-30T21:07:55.509Z,61.10
2018-03-30T21:09:27.325Z,59.10
2018-03-30T21:10:59.544Z,58.10
2018-03-30T21:12:30.955Z,63.30
2018-03-30T21:14:02.771Z,60.40
2018-03-30T21:15:34.587Z,59.30
2018-03-30T21:17:06.652Z,73.00
2018-03-30T21:18:38.218Z,68.10
2018-03-30T21:20:10.033Z,70.00
2018-03-30T21:21:41.849Z,73.10
2018-03-30T21:23:13.664Z,68.60
2018-03-30T21:24:45.479Z,71.00
2018-03-30T21:26:17.295Z,66.70
2018-03-30T21:27:49.110Z,63.00
2018-03-30T21:29:21.533Z,59.60
2018-03-30T21:30:52.743Z,64.60
2018-03-30T21:32:24.556Z,65.30
2018-03-30T21:33:56.372Z,60.00
2018-03-30T21:35:28.190Z,58.80
2018-03-30T21:37:00.206Z,64.90
2018-03-30T21:38:31.818Z,60.20
2018-03-30T21:40:03.634Z,60.80
2018-03-30T21:41:35.449Z,65.00
2018-03-30T21:43:07.264Z,63.40
2018-03-30T21:44:39.081Z,59.60
2018-03-30T21:46:10.895Z,54.10
2018-03-30T21:47:43.063Z,57.70
2018-03-30T21:49:14.527Z,49.20
2018-03-30T21:50:46.342Z,55.30
2018-03-30T21:52:18.158Z,48.30
2018-03-30T21:53:49.974Z,48.90
2018-03-30T21:55:21.790Z,54.00
2018-03-30T21:56:53.605Z,47.40
2018-03-30T21:58:25.421Z,53.10
2018-03-30T21:59:57.242Z,52.20
2018-03-30T22:01:29.053Z,48.20
2018-03-30T22:03:00.868Z,47.00
2018-03-30T22:04:32.684Z,47.30
2018-03-30T22:06:04.799Z,45.70
2018-03-30T22:07:36.319Z,52.00
2018-03-30T22:09:08.130Z,50.20
2018-03-30T22:10:39.946Z,46.60
2018-03-30T22:12:11.762Z,42.50
2018-03-30T22:13:43.578Z,46.10
2018-03-30T22:15:15.394Z,44.80
2018-03-30T22:16:47.208Z,40.20
2018-03-30T22:18:19.024Z,47.30
2018-03-30T22:19:50.840Z,46.50
2018-03-30T22:21:22.656Z,45.80
2018-03-30T22:22:54.471Z,41.10
2018-03-30T22:24:26.515Z,45.10
2018-03-30T22:25:58.102Z,41.20
2018-03-30T22:27:29.918Z,44.10
2018-03-30T22:29:01.736Z,40.30
2018-03-30T22:30:33.552Z,42.10
2018-03-30T22:32:05.365Z,48.60
2018-03-30T22:33:37.181Z,49.50
2018-03-30T22:35:08.997Z,53.70
2018-03-30T22:36:40.812Z,60.10
2018-03-30T22:38:12.628Z,53.30
2018-03-30T22:39:44.446Z,58.90
2018-03-30T22:41:16.259Z,58.10
2018-03-30T22:42:48.174Z,68.10
2018-03-30T22:44:19.890Z,58.80
2018-03-30T22:45:51.705Z,58.60
2018-03-30T22:47:23.521Z,61.70
2018-03-30T22:48:55.337Z,64.70
2018-03-30T22:50:27.152Z,63.30
2018-03-30T22:51:58.968Z,59.60
2018-03-30T22:53:30.783Z,54.10
2018-03-30T22:55:02.702Z,53.90
2018-03-30T22:56:34.416Z,63.30
2018-03-30T22:58:06.230Z,58.70
2018-03-30T22:59:38.048Z,57.50
2018-03-30T23:01:09.962Z,61.60
2018-03-30T23:02:41.678Z,71.10
2018-03-30T23:04:13.493Z,124.50
2018-03-30T23:05:45.309Z,60.70
2018-03-30T23:07:17.127Z,61.10
2018-03-30T23:08:48.940Z,51.40
2018-03-30T23:10:20.756Z,47.90
2018-03-30T23:11:52.572Z,61.80
2018-03-30T23:13:24.387Z,53.70
2018-03-30T23:14:56.205Z,53.00
2018-03-30T23:16:28.019Z,52.40
2018-03-30T23:17:59.835Z,54.30
2018-03-30T23:19:31.851Z,55.70
2018-03-30T23:21:03.468Z,57.40
2018-03-30T23:22:35.283Z,57.70
2018-03-30T23:24:07.100Z,60.00
2018-03-30T23:25:38.915Z,56.00
2018-03-30T23:27:10.731Z,52.90
2018-03-30T23:28:42.548Z,55.00
2018-03-30T23:30:14.363Z,53.20
2018-03-30T23:31:46.486Z,53.60
2018-03-30T23:33:17.996Z,54.50
2018-03-30T23:34:49.813Z,53.70
2018-03-30T23:36:21.629Z,55.10
2018-03-30T23:37:53.546Z,56.80
2018-03-30T23:39:25.263Z,57.40
2018-03-30T23:40:57.077Z,52.50
2018-03-30T23:42:28.894Z,61.70
2018-03-30T23:44:00.712Z,54.10
2018-03-30T23:45:32.526Z,56.30
2018-03-30T23:47:04.347Z,55.30
2018-03-30T23:48:36.158Z,49.20
2018-03-30T23:50:08.076Z,56.90
2018-03-30T23:51:39.792Z,58.10
2018-03-30T23:53:11.608Z,49.20
2018-03-30T23:54:43.424Z,50.70
2018-03-30T23:56:15.340Z,52.40
2018-03-30T23:57:47.057Z,51.40
2018-03-30T23:59:18.873Z,52.40
